Time;durP1;ratioP1;P1;durP2;ratioP2;P2;SDS_P1;SDS_P2;PMS_P1;PMS_P2;Temp;Humidity;BMP_temperature;BMP_pressure;BME280_temperature;BME280_humidity;BME280_pressure;Samples;Min_cycle;Max_cycle;Signal;HPM_P1;HPM_P2
2023/08/29 00:06:39;;;;;;;4.40;4.00;;;14.70;99.90;;;;;;4992898;28;20508;-79
2023/08/29 00:09:12;;;;;;;3.70;3.50;;;14.70;99.90;;;;;;4985949;28;20451;-79
2023/08/29 00:11:47;;;;;;;3.50;3.30;;;14.60;99.90;;;;;;4994692;28;20541;-80
2023/08/29 00:14:19;;;;;;;3.73;3.40;;;14.60;99.90;;;;;;4994096;28;20506;-79
2023/08/29 00:16:53;;;;;;;4.17;3.93;;;14.60;99.90;;;;;;4995614;28;20531;-79
2023/08/29 00:19:21;;;;;;;4.07;3.87;;;14.70;99.90;;;;;;4996921;28;20487;-79
2023/08/29 00:21:51;;;;;;;4.93;3.63;;;14.60;99.90;;;;;;4995623;28;20445;-79
2023/08/29 00:24:30;;;;;;;5.70;4.17;;;14.60;99.90;;;;;;4994179;28;20433;-80
2023/08/29 01:26:36;;;;;;;4.50;4.20;;;14.60;99.90;;;;;;4845061;29;20487;-79
2023/08/29 01:29:05;;;;;;;5.00;4.70;;;14.50;99.90;;;;;;4926734;28;20459;-79
2023/08/29 01:31:37;;;;;;;6.47;4.93;;;14.50;99.90;;;;;;5017430;28;20485;-80
2023/08/29 01:34:05;;;;;;;4.73;4.33;;;14.50;99.90;;;;;;5017494;28;20462;-80
2023/08/29 01:36:40;;;;;;;4.83;4.37;;;14.50;99.90;;;;;;5019753;28;20482;-79
2023/08/29 01:39:08;;;;;;;5.07;4.77;;;14.50;99.90;;;;;;5016375;28;20451;-79
2023/08/29 01:41:38;;;;;;;4.43;4.13;;;14.60;99.90;;;;;;5018864;28;20511;-79
2023/08/29 01:44:09;;;;;;;4.93;4.63;;;14.60;99.90;;;;;;5018984;28;20452;-79
2023/08/29 01:46:47;;;;;;;5.00;4.70;;;14.60;99.90;;;;;;5016639;28;20575;-80
2023/08/29 01:49:25;;;;;;;5.00;4.70;;;14.60;99.90;;;;;;5019024;28;20501;-82
2023/08/29 01:51:53;;;;;;;5.37;4.80;;;14.60;99.90;;;;;;5017308;28;20873;-80
2023/08/29 01:54:21;;;;;;;4.93;4.50;;;14.60;99.90;;;;;;5018381;28;20978;-79
2023/08/29 02:36:54;;;;;;;5.97;4.60;;;14.60;99.90;;;;;;4847990;29;20927;-78
2023/08/29 02:39:24;;;;;;;4.90;4.60;;;14.60;99.90;;;;;;4975539;28;20444;-79
2023/08/29 02:42:03;;;;;;;6.43;5.50;;;14.70;99.90;;;;;;5014402;28;20494;-79
2023/08/29 02:44:32;;;;;;;5.50;5.10;;;14.70;99.90;;;;;;5014021;28;20460;-79
2023/08/29 02:47:01;;;;;;;5.47;5.17;;;14.70;99.90;;;;;;5014754;28;20475;-79
2023/08/29 02:49:32;;;;;;;5.27;4.93;;;14.70;99.90;;;;;;5014874;28;20479;-78
2023/08/29 02:52:02;;;;;;;5.70;5.30;;;14.60;99.90;;;;;;5015906;28;20483;-80
2023/08/29 02:54:44;;;;;;;6.47;5.60;;;14.60;99.90;;;;;;5014614;28;20522;-80
2023/08/29 02:57:20;;;;;;;6.30;5.90;;;14.60;99.90;;;;;;5015571;28;20459;-79
2023/08/29 02:59:58;;;;;;;5.73;5.30;;;14.60;99.90;;;;;;5014457;28;20457;-80
2023/08/29 03:02:32;;;;;;;9.10;5.40;;;14.60;99.90;;;;;;5014341;28;20978;-78
2023/08/29 03:05:20;;;;;;;6.40;6.00;;;14.60;99.90;;;;;;5014397;28;20521;-79
2023/08/29 03:08:01;;;;;;;5.67;5.23;;;14.60;99.90;;;;;;5020335;28;20495;-78
2023/08/29 03:10:28;;;;;;;6.53;6.03;;;14.60;99.90;;;;;;5025981;28;20455;-78
2023/08/29 03:12:57;;;;;;;6.37;5.77;;;14.60;99.90;;;;;;5014849;28;20451;-78
2023/08/29 03:15:33;;;;;;;6.30;5.90;;;14.60;99.90;;;;;;5014508;28;20820;-78
2023/08/29 03:18:03;;;;;;;5.43;5.07;;;14.70;99.90;;;;;;5021724;28;20486;-79
2023/08/29 03:20:35;;;;;;;6.63;6.13;;;14.70;99.90;;;;;;5020123;28;20455;-80
2023/08/29 03:23:05;;;;;;;6.10;5.70;;;14.70;99.90;;;;;;5017415;28;21142;-77
2023/08/29 03:25:47;;;;;;;7.40;6.70;;;14.60;99.90;;;;;;5017166;28;20807;-78
2023/08/29 03:28:21;;;;;;;6.97;6.40;;;14.60;99.90;;;;;;5018395;28;20846;-80
2023/08/29 03:31:01;;;;;;;5.70;5.40;;;14.60;99.90;;;;;;5018717;28;20463;-81
2023/08/29 03:33:37;;;;;;;7.30;6.80;;;14.60;99.90;;;;;;5025378;28;20505;-80
2023/08/29 03:36:12;;;;;;;6.20;5.70;;;14.60;99.90;;;;;;5031078;28;20435;-78
2023/08/29 03:38:49;;;;;;;7.10;6.60;;;14.60;99.90;;;;;;5027447;28;20451;-77
2023/08/29 03:41:28;;;;;;;5.80;5.40;;;14.60;99.90;;;;;;5032045;28;20436;-80
2023/08/29 03:44:13;;;;;;;7.60;7.00;;;14.70;99.90;;;;;;5032537;28;20454;-78
2023/08/29 03:47:03;;;;;;;6.73;6.23;;;14.60;99.90;;;;;;5032603;28;20459;-78
2023/08/29 03:49:35;;;;;;;6.70;6.20;;;14.60;99.90;;;;;;5029221;28;20463;-79
2023/08/29 03:52:21;;;;;;;6.90;6.40;;;14.60;99.90;;;;;;5023195;28;20610;-79
2023/08/29 03:54:51;;;;;;;7.10;6.50;;;14.60;99.90;;;;;;5017021;28;20451;-78
2023/08/29 03:57:18;;;;;;;7.53;6.80;;;14.60;99.90;;;;;;5018339;28;20491;-81
2023/08/29 03:59:57;;;;;;;7.50;7.00;;;14.60;99.90;;;;;;5016243;28;20458;-79
2023/08/29 04:02:26;;;;;;;7.80;7.20;;;14.50;99.90;;;;;;5015694;28;20742;-78
2023/08/29 04:04:55;;;;;;;8.40;7.60;;;14.50;99.90;;;;;;5019914;28;20808;-79
2023/08/29 04:07:26;;;;;;;8.47;7.67;;;14.50;99.90;;;;;;5021129;28;20471;-79
2023/08/29 04:10:04;;;;;;;8.27;7.67;;;14.60;99.90;;;;;;5023380;28;20455;-80
2023/08/29 04:12:38;;;;;;;8.43;7.63;;;14.50;99.90;;;;;;5023228;28;20718;-78
2023/08/29 04:15:12;;;;;;;8.77;8.17;;;14.50;99.90;;;;;;5026324;28;20455;-79
2023/08/29 04:23:58;;;;;;;9.33;8.63;;;14.40;99.90;;;;;;4876569;29;20455;-78
2023/08/29 04:41:54;;;;;;;11.90;11.00;;;14.50;99.90;;;;;;5021778;28;20844;-80
2023/08/29 04:44:31;;;;;;;11.13;10.27;;;14.60;99.90;;;;;;5027647;28;20442;-80
2023/08/29 04:47:04;;;;;;;10.80;9.90;;;14.40;99.90;;;;;;5013884;28;20466;-78
2023/08/29 04:49:39;;;;;;;11.37;10.47;;;14.40;99.90;;;;;;5013232;28;20802;-80
2023/08/29 04:52:12;;;;;;;11.80;11.00;;;14.30;99.90;;;;;;5029538;28;20569;-79
2023/08/29 04:54:46;;;;;;;11.70;10.70;;;14.40;99.90;;;;;;5031828;28;20451;-81
2023/08/29 04:57:23;;;;;;;12.73;11.60;;;14.40;99.90;;;;;;5032168;28;20478;-82
2023/08/29 04:59:52;;;;;;;12.47;11.37;;;14.40;99.90;;;;;;5034302;28;20443;-81
2023/08/29 05:02:20;;;;;;;12.50;11.50;;;14.40;99.90;;;;;;5034508;28;20467;-82
2023/08/29 05:04:53;;;;;;;13.27;12.17;;;14.40;99.90;;;;;;5032373;28;20489;-84
2023/08/29 05:07:27;;;;;;;13.40;12.30;;;14.40;99.90;;;;;;5033929;28;20550;-79
2023/08/29 05:10:01;;;;;;;12.73;11.70;;;14.40;99.90;;;;;;5036985;28;20444;-78
2023/08/29 05:12:37;;;;;;;12.77;11.70;;;14.40;99.90;;;;;;5031930;28;20478;-80
2023/08/29 05:15:23;;;;;;;12.70;11.70;;;14.40;99.90;;;;;;5025104;28;20509;-82
2023/08/29 05:17:52;;;;;;;14.77;13.47;;;14.40;99.90;;;;;;5001607;28;20872;-79
2023/08/29 05:39:45;;;;;;;15.10;13.80;;;14.40;99.90;;;;;;4998322;28;20449;-81
2023/08/29 05:42:21;;;;;;;14.10;12.90;;;14.40;99.90;;;;;;4973460;28;20463;-81
2023/08/29 05:45:08;;;;;;;15.03;13.73;;;14.40;99.90;;;;;;5002445;28;20657;-81
2023/08/29 05:47:54;;;;;;;14.40;13.20;;;14.40;99.90;;;;;;5004726;28;20472;-79
2023/08/29 05:50:40;;;;;;;15.40;14.00;;;14.40;99.90;;;;;;5005522;28;20456;-82
2023/08/29 05:53:13;;;;;;;16.30;14.90;;;14.30;99.90;;;;;;5002347;28;20452;-79
2023/08/29 05:55:45;;;;;;;15.20;14.00;;;14.40;99.90;;;;;;5008880;28;20449;-80
2023/08/29 05:58:18;;;;;;;15.00;13.77;;;14.40;99.90;;;;;;5003539;28;20480;-82
2023/08/29 06:00:59;;;;;;;15.00;13.80;;;14.50;99.90;;;;;;5003572;28;20421;-80
2023/08/29 06:03:57;;;;;;;21.77;19.77;;;14.50;99.90;;;;;;4999071;28;20822;-81
2023/08/29 06:06:45;;;;;;;14.80;13.63;;;14.50;99.90;;;;;;5001080;28;20536;-80
2023/08/29 06:09:19;;;;;;;15.53;14.13;;;14.60;99.90;;;;;;5000881;28;20448;-80
2023/08/29 06:11:51;;;;;;;16.63;15.20;;;14.50;99.90;;;;;;5001941;28;20518;-78
2023/08/29 06:14:31;;;;;;;15.70;14.30;;;14.50;99.90;;;;;;5002533;28;20460;-80
2023/08/29 06:17:11;;;;;;;14.63;13.43;;;14.50;99.90;;;;;;5001613;28;20543;-79
2023/08/29 06:20:00;;;;;;;15.20;13.90;;;14.40;99.90;;;;;;5001771;28;20456;-81
2023/08/29 06:22:45;;;;;;;14.80;13.50;;;14.40;99.90;;;;;;5007077;28;20539;-80
2023/08/29 06:25:21;;;;;;;14.57;13.27;;;14.40;99.90;;;;;;5016995;28;20443;-80
2023/08/29 06:28:00;;;;;;;15.87;14.47;;;14.50;99.90;;;;;;5022837;28;20473;-79
2023/08/29 06:30:38;;;;;;;15.03;13.83;;;14.50;99.90;;;;;;5027948;28;20435;-81
2023/08/29 06:33:10;;;;;;;15.50;14.30;;;14.50;99.90;;;;;;5020865;28;20478;-80
2023/08/29 06:35:50;;;;;;;14.33;13.17;;;14.50;99.90;;;;;;5027861;28;20526;-82
2023/08/29 06:38:25;;;;;;;14.47;13.17;;;14.50;99.90;;;;;;5020415;28;20574;-78
2023/08/29 06:41:00;;;;;;;14.90;13.47;;;14.50;99.90;;;;;;5021849;28;20450;-81
2023/08/29 06:43:51;;;;;;;14.40;13.20;;;14.20;99.90;;;;;;5021258;28;20456;-80
2023/08/29 06:46:41;;;;;;;13.93;12.83;;;14.50;99.90;;;;;;5021542;28;20948;-81
2023/08/29 06:49:09;;;;;;;13.93;12.83;;;14.50;99.90;;;;;;5020558;28;20463;-78
2023/08/29 06:51:41;;;;;;;14.07;12.87;;;14.60;99.90;;;;;;5020080;28;20439;-80
2023/08/29 06:54:16;;;;;;;15.03;13.73;;;14.60;99.90;;;;;;5022630;28;20474;-78
2023/08/29 06:59:36;;;;;;;14.67;13.10;;;14.70;99.90;;;;;;5022562;28;20447;-81
2023/08/29 07:02:05;;;;;;;14.57;13.30;;;14.80;99.90;;;;;;5024908;28;20416;-80
2023/08/29 07:04:37;;;;;;;14.10;13.10;;;14.60;99.90;;;;;;5024223;28;20463;-79
2023/08/29 07:07:11;;;;;;;13.67;12.57;;;14.50;99.90;;;;;;5023085;28;20553;-79
2023/08/29 07:09:51;;;;;;;15.17;13.87;;;14.50;99.90;;;;;;5023905;28;20435;-79
2023/08/29 07:12:22;;;;;;;14.90;13.70;;;14.50;99.90;;;;;;5024134;28;20561;-80
2023/08/29 07:14:54;;;;;;;14.93;13.43;;;14.50;99.90;;;;;;5011886;28;20483;-80
2023/08/29 07:17:23;;;;;;;14.30;13.10;;;14.50;99.90;;;;;;5000963;28;20480;-79
2023/08/29 07:19:55;;;;;;;14.90;13.47;;;14.60;99.90;;;;;;5001487;28;20456;-80
2023/08/29 07:22:30;;;;;;;13.83;12.73;;;14.50;99.90;;;;;;5005738;28;20457;-79
2023/08/29 07:25:01;;;;;;;13.50;12.37;;;14.60;99.90;;;;;;5021319;28;20458;-78
2023/08/29 07:27:32;;;;;;;14.57;13.27;;;14.70;99.90;;;;;;5021026;28;20881;-81
2023/08/29 07:30:05;;;;;;;14.27;13.07;;;14.80;99.90;;;;;;5020114;28;20530;-82
2023/08/29 07:32:36;;;;;;;13.00;12.00;;;14.90;99.90;;;;;;5021450;28;20557;-82
2023/08/29 07:35:13;;;;;;;12.80;11.80;;;15.00;99.90;;;;;;5023234;28;20924;-81
2023/08/29 07:37:51;;;;;;;13.07;12.10;;;14.90;99.90;;;;;;5020609;28;20533;-80
2023/08/29 07:40:23;;;;;;;13.00;11.90;;;15.00;99.90;;;;;;5019094;28;20451;-79
2023/08/29 07:42:54;;;;;;;12.50;11.43;;;15.00;99.90;;;;;;5020901;28;20873;-79
2023/08/29 07:45:23;;;;;;;12.20;11.30;;;15.10;99.90;;;;;;5025214;28;20522;-78
2023/08/29 07:50:48;;;;;;;13.57;12.37;;;15.00;99.90;;;;;;5015686;28;20442;-80
2023/08/29 07:53:20;;;;;;;12.70;11.70;;;14.90;99.90;;;;;;5020761;28;20479;-81
2023/08/29 07:55:53;;;;;;;13.37;12.20;;;14.80;99.90;;;;;;5014713;28;20823;-78
2023/08/29 07:58:31;;;;;;;14.13;13.13;;;14.70;99.90;;;;;;5024085;28;20551;-79
2023/08/29 08:01:02;;;;;;;13.57;12.30;;;14.60;99.90;;;;;;5028209;28;20513;-79
2023/08/29 08:10:02;;;;;;;14.80;13.43;;;14.50;99.90;;;;;;4981634;28;20433;-83
2023/08/29 08:12:56;;;;;;;13.77;12.67;;;14.70;99.90;;;;;;4978084;28;20525;-80
2023/08/29 08:15:52;;;;;;;15.10;14.00;;;14.50;99.90;;;;;;5021199;28;20444;-81
2023/08/29 08:18:35;;;;;;;14.17;13.07;;;14.60;99.90;;;;;;5017132;28;20459;-81
2023/08/29 08:21:12;;;;;;;14.60;13.40;;;14.60;99.90;;;;;;5015629;28;20942;-81
2023/08/29 08:23:48;;;;;;;14.83;13.73;;;14.60;99.90;;;;;;5023929;28;20839;-79
2023/08/29 08:26:31;;;;;;;14.83;13.77;;;14.60;99.90;;;;;;5028284;28;20810;-80
2023/08/29 08:29:23;;;;;;;;;;;;;;;;;;;;;
2023/08/29 08:31:52;;;;;;;14.80;13.70;;;14.80;99.90;;;;;;5025585;28;20483;-80
2023/08/29 08:34:33;;;;;;;15.33;14.10;;;14.80;99.90;;;;;;5006380;28;21001;-81
2023/08/29 08:37:22;;;;;;;16.03;14.67;;;14.90;99.90;;;;;;5003977;28;20507;-81
2023/08/29 08:40:09;;;;;;;16.37;14.87;;;15.00;99.90;;;;;;5016863;28;20951;-80
2023/08/29 08:42:57;;;;;;;16.97;15.47;;;15.10;99.90;;;;;;5005073;28;20448;-81
2023/08/29 08:45:47;;;;;;;16.50;14.43;;;15.00;99.90;;;;;;5006819;28;21039;-80
2023/08/29 08:51:27;;;;;;;16.70;15.20;;;14.80;99.90;;;;;;4999944;28;20507;-81
2023/08/29 08:54:08;;;;;;;16.77;15.50;;;14.90;99.90;;;;;;5004159;28;20506;-80
2023/08/29 08:56:59;;;;;;;15.03;13.83;;;14.90;99.90;;;;;;5003867;28;20551;-81
2023/08/29 08:59:42;;;;;;;17.47;15.77;;;14.90;99.90;;;;;;5002658;28;20457;-82
2023/08/29 09:02:30;;;;;;;17.27;15.97;;;15.00;99.90;;;;;;5001451;28;20452;-80
2023/08/29 09:08:18;;;;;;;15.37;14.23;;;15.30;99.90;;;;;;5001102;28;20825;-81
2023/08/29 09:11:01;;;;;;;16.67;15.33;;;15.30;99.90;;;;;;5001781;28;20531;-82
2023/08/29 09:13:53;;;;;;;16.90;15.60;;;15.20;99.90;;;;;;5009352;28;20567;-82
2023/08/29 09:16:25;;;;;;;16.70;15.30;;;15.20;99.90;;;;;;5011470;28;20464;-80
2023/08/29 09:19:17;;;;;;;15.10;14.00;;;15.40;99.90;;;;;;5013587;28;20445;-81
2023/08/29 09:22:00;;;;;;;14.93;13.80;;;15.30;99.90;;;;;;5017751;28;20481;-80
2023/08/29 09:28:03;;;;;;;15.73;14.33;;;15.30;99.90;;;;;;5024118;28;20511;-80
2023/08/29 09:30:49;;;;;;;16.20;14.80;;;15.10;99.90;;;;;;5022680;28;20474;-82
2023/08/29 09:33:27;;;;;;;15.30;14.20;;;15.20;99.90;;;;;;5021266;28;20490;-81
2023/08/29 09:36:10;;;;;;;14.83;13.53;;;15.20;99.90;;;;;;5021478;28;20455;-79
2023/08/29 09:41:39;;;;;;;15.33;14.13;;;15.40;99.90;;;;;;5014357;28;20466;-81
2023/08/29 09:44:22;;;;;;;16.33;15.07;;;15.30;99.90;;;;;;5016610;28;20447;-80
2023/08/29 09:46:54;;;;;;;17.00;15.67;;;15.30;99.90;;;;;;5015842;28;20514;-79
2023/08/29 09:49:31;;;;;;;18.10;16.60;;;15.50;99.90;;;;;;5017327;28;20503;-81
2023/08/29 09:52:34;;;;;;;18.50;17.00;;;15.20;99.90;;;;;;5018507;28;20447;-80
2023/08/29 09:55:26;;;;;;;18.63;17.23;;;15.30;99.90;;;;;;5016953;28;20475;-80
2023/08/29 09:58:14;;;;;;;17.83;16.40;;;15.40;99.90;;;;;;5018247;28;20550;-82
2023/08/29 10:03:48;;;;;;;16.93;15.63;;;15.60;99.90;;;;;;5018417;28;20463;-81
2023/08/29 10:06:39;;;;;;;17.23;15.93;;;15.60;99.90;;;;;;5018210;28;20502;-79
2023/08/29 10:09:15;;;;;;;17.70;16.30;;;15.50;99.90;;;;;;5017682;28;20459;-81
2023/08/29 10:12:08;;;;;;;16.90;15.50;;;15.50;99.90;;;;;;5017483;28;20502;-80
2023/08/29 10:14:46;;;;;;;17.00;15.70;;;15.50;99.90;;;;;;5020608;28;20479;-82
2023/08/29 10:17:15;;;;;;;17.27;15.77;;;15.60;99.90;;;;;;5019633;28;20498;-81
2023/08/29 10:19:48;;;;;;;16.70;15.43;;;15.80;99.90;;;;;;5017889;28;20458;-80
2023/08/29 10:22:37;;;;;;;15.73;14.60;;;15.90;99.90;;;;;;5018604;28;20558;-82
2023/08/29 10:25:20;;;;;;;16.30;15.03;;;15.90;99.90;;;;;;5020461;28;20526;-81
2023/08/29 10:27:52;;;;;;;16.90;15.50;;;16.00;99.90;;;;;;5019734;28;20490;-80
2023/08/29 10:30:33;;;;;;;15.47;14.40;;;16.30;99.90;;;;;;5018167;28;20451;-80
2023/08/29 10:33:09;;;;;;;15.50;14.20;;;16.40;99.90;;;;;;5017109;28;20554;-80
2023/08/29 10:35:40;;;;;;;13.47;12.57;;;16.40;99.90;;;;;;5016573;28;20665;-81
2023/08/29 10:38:16;;;;;;;13.53;12.60;;;16.50;99.90;;;;;;5012954;28;20468;-80
2023/08/29 10:41:06;;;;;;;14.03;12.93;;;16.50;99.90;;;;;;5017613;28;20514;-82
2023/08/29 10:43:41;;;;;;;14.60;13.33;;;16.50;99.90;;;;;;4999807;28;20455;-80
2023/08/29 10:46:27;;;;;;;14.87;13.57;;;16.40;99.90;;;;;;5015409;28;20454;-79
2023/08/29 10:49:03;;;;;;;13.90;12.90;;;16.20;99.90;;;;;;5016845;28;20487;-79
2023/08/29 10:51:32;;;;;;;14.30;13.03;;;16.30;99.90;;;;;;5017370;28;20454;-80
2023/08/29 10:54:05;;;;;;;13.57;12.67;;;16.40;99.90;;;;;;5022033;28;21172;-81
2023/08/29 10:56:45;;;;;;;13.80;12.73;;;16.40;99.90;;;;;;5026204;28;20463;-79
2023/08/29 10:59:34;;;;;;;15.20;14.10;;;16.40;99.90;;;;;;5007406;28;20772;-82
2023/08/29 11:02:41;;;;;;;14.97;13.97;;;16.10;99.90;;;;;;4998772;28;20476;-83
2023/08/29 11:05:27;;;;;;;16.37;15.17;;;16.00;99.90;;;;;;5009355;28;20462;-79
2023/08/29 11:08:15;;;;;;;15.73;14.63;;;15.90;99.90;;;;;;5018049;28;20472;-81
2023/08/29 11:10:45;;;;;;;15.83;14.57;;;16.00;99.90;;;;;;5017774;28;20865;-79
2023/08/29 11:13:29;;;;;;;16.20;15.00;;;16.10;99.90;;;;;;5020501;28;20471;-80
2023/08/29 11:16:17;;;;;;;16.50;15.33;;;16.10;99.90;;;;;;5027274;28;20471;-79
2023/08/29 11:18:51;;;;;;;18.27;16.90;;;16.20;99.90;;;;;;5027215;28;20459;-79
2023/08/29 11:21:24;;;;;;;15.37;14.37;;;16.30;99.90;;;;;;5026537;28;20478;-81
2023/08/29 11:23:59;;;;;;;18.03;16.53;;;16.50;99.90;;;;;;5022164;28;20447;-80
2023/08/29 11:26:35;;;;;;;16.23;15.00;;;16.60;99.90;;;;;;5017333;28;20566;-79
2023/08/29 11:29:11;;;;;;;16.00;14.80;;;16.70;99.90;;;;;;5020408;28;20443;-80
2023/08/29 11:31:47;;;;;;;15.40;14.30;;;16.80;99.90;;;;;;5019236;28;20447;-81
2023/08/29 11:34:27;;;;;;;15.53;14.40;;;17.00;99.90;;;;;;5022445;28;20510;-80
2023/08/29 11:37:02;;;;;;;16.63;15.53;;;17.20;99.90;;;;;;5022302;28;20473;-81
2023/08/29 11:39:46;;;;;;;16.50;15.40;;;16.90;99.90;;;;;;5022614;28;20530;-80
2023/08/29 11:42:25;;;;;;;15.37;14.37;;;17.30;99.90;;;;;;5017464;28;20452;-79
2023/08/29 11:44:57;;;;;;;30.50;27.97;;;17.30;99.90;;;;;;5019809;28;20451;-80
2023/08/29 11:47:29;;;;;;;16.10;15.03;;;17.30;99.90;;;;;;5022964;28;20467;-80
2023/08/29 11:50:04;;;;;;;16.50;15.30;;;17.30;99.90;;;;;;5020991;28;20447;-79
2023/08/29 11:52:53;;;;;;;15.50;14.53;;;17.40;99.90;;;;;;5021778;28;20538;-77
2023/08/29 11:58:17;;;;;;;15.43;14.23;;;17.30;99.90;;;;;;5016041;28;20474;-80
2023/08/29 12:00:50;;;;;;;14.43;13.43;;;17.20;99.90;;;;;;5017144;28;20453;-80
2023/08/29 12:06:16;;;;;;;17.50;16.30;;;17.20;99.90;;;;;;4995126;28;21164;-81
2023/08/29 12:08:47;;;;;;;17.40;16.10;;;17.10;99.90;;;;;;5014847;28;20459;-80
2023/08/29 12:11:23;;;;;;;16.43;15.23;;;17.10;99.90;;;;;;5015358;28;20823;-80
2023/08/29 12:14:09;;;;;;;17.47;16.17;;;17.20;99.90;;;;;;5017446;28;20844;-81
2023/08/29 12:52:53;;;;;;;14.63;13.50;;;16.60;99.90;;;;;;4987280;28;20474;-83
2023/08/29 12:55:20;;;;;;;15.17;14.07;;;16.90;99.90;;;;;;4984183;28;20490;-83
2023/08/29 12:57:49;;;;;;;15.97;14.87;;;16.70;99.90;;;;;;4993345;28;20476;-79
2023/08/29 13:00:25;;;;;;;15.00;13.97;;;16.70;99.90;;;;;;4986106;28;20543;-80
2023/08/29 13:03:08;;;;;;;14.87;13.80;;;16.70;99.90;;;;;;4992458;28;20453;-79
2023/08/29 13:05:46;;;;;;;15.67;14.47;;;16.60;99.90;;;;;;4983138;28;20457;-79
2023/08/29 13:08:18;;;;;;;15.07;13.97;;;16.70;99.90;;;;;;5000724;28;20472;-80
2023/08/29 13:10:52;;;;;;;14.03;12.90;;;16.80;99.90;;;;;;5002212;28;20552;-82
2023/08/29 13:13:28;;;;;;;11.50;10.70;;;17.00;99.90;;;;;;4984833;28;20468;-80
2023/08/29 13:16:12;;;;;;;11.93;10.93;;;17.00;99.90;;;;;;4993644;28;20449;-82
2023/08/29 13:18:59;;;;;;;12.57;11.70;;;17.10;99.90;;;;;;4994697;28;20968;-79
2023/08/29 13:21:34;;;;;;;13.40;12.40;;;17.30;99.90;;;;;;4985088;28;20452;-79
2023/08/29 13:24:21;;;;;;;10.90;10.20;;;17.40;99.90;;;;;;4993483;28;20455;-80
2023/08/29 13:26:58;;;;;;;10.40;9.70;;;17.40;99.90;;;;;;5002938;28;20468;-82
2023/08/29 13:30:15;;;;;;;12.30;11.33;;;17.30;99.90;;;;;;5001548;28;20463;-80
2023/08/29 13:33:41;;;;;;;10.60;9.87;;;17.40;99.90;;;;;;4996929;28;20532;-81
2023/08/29 13:40:05;;;;;;;10.30;9.60;;;17.20;99.90;;;;;;5007851;28;20452;-80
2023/08/29 13:43:08;;;;;;;12.00;11.20;;;17.40;99.90;;;;;;4968575;28;20567;-82
2023/08/29 13:46:24;;;;;;;11.70;10.90;;;17.50;99.90;;;;;;4976089;28;21048;-82
2023/08/29 13:49:25;;;;;;;12.00;11.10;;;17.50;99.90;;;;;;4920434;29;20456;-82
2023/08/29 13:51:59;;;;;;;12.00;11.10;;;17.60;99.90;;;;;;4964071;28;20452;-81
2023/08/29 13:54:33;;;;;;;12.60;11.70;;;17.40;99.90;;;;;;4986623;28;20531;-81
2023/08/29 13:57:07;;;;;;;12.80;11.90;;;17.50;99.90;;;;;;4995101;28;20975;-81
2023/08/29 14:00:05;;;;;;;6.80;6.40;;;17.50;99.90;;;;;;4978276;28;20597;-81
2023/08/29 14:05:52;;;;;;;7.20;6.80;;;17.30;99.90;;;;;;4979746;28;20428;-80
2023/08/29 14:15:11;;;;;;;8.37;7.77;;;17.40;99.90;;;;;;4862176;29;20508;-81
2023/08/29 14:17:48;;;;;;;9.17;8.37;;;17.40;99.90;;;;;;4998798;28;20482;-81
2023/08/29 14:20:32;;;;;;;10.23;9.57;;;17.50;99.90;;;;;;5009717;28;20963;-80
2023/08/29 14:23:07;;;;;;;8.83;7.13;;;17.60;99.90;;;;;;5010795;28;20871;-80
2023/08/29 14:25:58;;;;;;;7.10;6.50;;;17.50;99.90;;;;;;5004487;28;20448;-80
2023/08/29 14:28:32;;;;;;;8.13;7.53;;;17.70;99.90;;;;;;5014255;28;20814;-81
2023/08/29 14:31:16;;;;;;;8.00;7.50;;;17.70;99.90;;;;;;5006164;28;20452;-82
2023/08/29 14:34:01;;;;;;;7.40;6.97;;;17.70;99.90;;;;;;4999889;28;20460;-82
2023/08/29 14:37:09;;;;;;;8.90;8.30;;;17.70;99.90;;;;;;5000628;28;20472;-80
2023/08/29 14:39:58;;;;;;;8.30;7.60;;;17.80;99.90;;;;;;4997443;28;20458;-82
2023/08/29 14:42:41;;;;;;;9.40;8.50;;;17.70;99.90;;;;;;5005917;28;20547;-81
2023/08/29 14:45:32;;;;;;;;;;;;;;;;;;;;;
2023/08/29 14:48:22;;;;;;;5.17;4.77;;;17.50;99.90;;;;;;5011099;28;20466;-81
2023/08/29 14:51:03;;;;;;;4.77;4.37;;;17.70;99.90;;;;;;5016132;28;20801;-79
2023/08/29 14:54:10;;;;;;;3.97;3.77;;;17.70;99.90;;;;;;5015898;28;20888;-80
2023/08/29 14:56:54;;;;;;;4.80;4.40;;;17.60;99.90;;;;;;4991383;28;20540;-81
2023/08/29 15:00:00;;;;;;;;;;;;;;;;;;;;;
2023/08/29 15:02:46;;;;;;;3.70;3.50;;;17.80;99.90;;;;;;5002825;28;20447;-79
2023/08/29 15:05:35;;;;;;;3.60;3.33;;;17.80;99.90;;;;;;5013477;28;20474;-81
2023/08/29 15:08:14;;;;;;;3.70;3.40;;;17.70;99.90;;;;;;5003920;28;20491;-80
2023/08/29 15:10:51;;;;;;;3.57;3.30;;;17.80;99.90;;;;;;5011429;28;20742;-81
2023/08/29 15:13:26;;;;;;;3.80;3.60;;;18.00;99.90;;;;;;5016417;28;20554;-79
2023/08/29 15:16:18;;;;;;;3.53;3.33;;;18.10;99.90;;;;;;4996356;28;20987;-82
2023/08/29 15:18:58;;;;;;;2.73;2.53;;;18.10;99.90;;;;;;5019683;28;20483;-79
2023/08/29 15:24:21;;;;;;;3.60;3.30;;;18.20;99.90;;;;;;4969591;28;20499;-78
2023/08/29 15:26:56;;;;;;;3.17;3.07;;;17.90;99.90;;;;;;5013632;28;20473;-82
2023/08/29 15:29:36;;;;;;;3.83;3.53;;;17.90;99.90;;;;;;5005706;28;20435;-80
2023/08/29 15:32:14;;;;;;;4.40;4.10;;;18.10;99.90;;;;;;5012027;28;20471;-81
2023/08/29 15:34:47;;;;;;;6.10;5.70;;;18.20;99.90;;;;;;5017105;28;20486;-81
2023/08/29 15:37:53;;;;;;;3.57;3.37;;;18.30;99.90;;;;;;5002339;28;20817;-79
2023/08/29 15:43:28;;;;;;;3.43;2.77;;;18.30;99.90;;;;;;4970768;28;20511;-80
2023/08/29 15:46:14;;;;;;;3.20;2.70;;;18.30;99.90;;;;;;5001486;28;20512;-82
2023/08/29 15:49:00;;;;;;;5.23;4.77;;;18.30;99.90;;;;;;5003405;28;20467;-79
2023/08/29 15:51:53;;;;;;;2.77;2.67;;;18.30;99.90;;;;;;5002460;28;20467;-79
2023/08/29 15:55:09;;;;;;;;;;;;;;;;;;;;;
2023/08/29 15:58:26;;;;;;;2.70;2.60;;;18.30;99.90;;;;;;5019198;28;20464;-81
2023/08/29 16:01:17;;;;;;;5.53;3.37;;;18.40;99.90;;;;;;4970476;28;20543;-81
2023/08/29 16:04:39;;;;;;;3.73;3.53;;;18.30;99.90;;;;;;4984234;28;20531;-83
2023/08/29 16:07:20;;;;;;;6.30;5.80;;;18.20;99.90;;;;;;4942703;29;20479;-82
2023/08/29 16:14:15;;;;;;;8.73;8.13;;;18.00;99.90;;;;;;4942656;29;20472;-79
2023/08/29 16:17:39;;;;;;;;;;;;;;;;;;;;;
2023/08/29 16:20:39;;;;;;;8.87;8.07;;;18.00;99.90;;;;;;4945426;29;20438;-80
2023/08/29 16:24:01;;;;;;;4.27;3.97;;;18.00;99.90;;;;;;4961965;28;20510;-79
2023/08/29 16:37:28;;;;;;;8.23;7.53;;;18.10;99.90;;;;;;4983079;28;20442;-78
2023/08/29 16:43:25;;;;;;;4.00;3.60;;;18.20;99.90;;;;;;5035972;28;20433;-79
2023/08/29 16:46:13;;;;;;;3.00;2.80;;;18.30;99.90;;;;;;5043570;28;20447;-79
2023/08/29 16:48:44;;;;;;;2.40;2.30;;;18.10;99.90;;;;;;5036635;28;20504;-79
2023/08/29 16:51:27;;;;;;;4.63;2.50;;;18.10;99.90;;;;;;5035831;28;20459;-80
2023/08/29 16:57:06;;;;;;;2.70;2.53;;;18.10;99.90;;;;;;5020707;28;20455;-79
2023/08/29 17:00:41;;;;;;;2.33;2.20;;;18.10;99.90;;;;;;5023998;28;20428;-80
2023/08/29 17:03:31;;;;;;;3.10;2.80;;;18.10;99.90;;;;;;4997802;28;20444;-79
2023/08/29 17:09:59;;;;;;;3.23;3.03;;;17.80;99.90;;;;;;5039360;28;20447;-79
2023/08/29 17:12:41;;;;;;;4.07;3.27;;;17.80;99.90;;;;;;4981129;28;20434;-79
2023/08/29 17:18:22;;;;;;;;;;;;;;;;;;;;;
2023/08/29 17:21:28;;;;;;;3.20;3.03;;;17.80;99.90;;;;;;5030700;28;20432;-81
2023/08/29 17:27:15;;;;;;;2.73;2.63;;;17.80;99.90;;;;;;5012053;28;20463;-80
2023/08/29 17:30:05;;;;;;;3.47;3.13;;;17.70;99.90;;;;;;5032618;28;20443;-78
2023/08/29 17:32:42;;;;;;;3.83;2.80;;;17.60;99.90;;;;;;5014841;28;20436;-79
2023/08/29 17:35:18;;;;;;;3.43;3.10;;;17.60;99.90;;;;;;5027633;28;20517;-79
2023/08/29 17:38:13;;;;;;;3.80;3.60;;;17.70;99.90;;;;;;5024383;28;20582;-83
2023/08/29 17:40:52;;;;;;;3.60;3.30;;;17.70;99.90;;;;;;5012449;28;20459;-80
2023/08/29 17:43:30;;;;;;;3.57;3.37;;;17.70;99.90;;;;;;5017941;28;20507;-78
2023/08/29 17:46:24;;;;;;;4.23;4.03;;;17.60;99.90;;;;;;5036465;28;20510;-80
2023/08/29 17:49:17;;;;;;;3.77;3.47;;;17.70;99.90;;;;;;5029245;28;20524;-79
2023/08/29 17:51:50;;;;;;;4.17;3.87;;;17.70;99.90;;;;;;5018453;28;20465;-81
2023/08/29 17:54:37;;;;;;;4.10;3.90;;;17.80;99.90;;;;;;5011789;28;20464;-81
2023/08/29 17:57:18;;;;;;;4.40;4.10;;;17.70;99.90;;;;;;5009221;28;20551;-80
2023/08/29 17:59:55;;;;;;;4.17;3.87;;;17.60;99.90;;;;;;5030467;28;20451;-78
2023/08/29 18:02:39;;;;;;;4.40;4.10;;;17.60;99.90;;;;;;5023173;28;20505;-80
2023/08/29 18:05:22;;;;;;;4.60;4.30;;;17.50;99.90;;;;;;5021224;28;20798;-79
2023/08/29 18:07:51;;;;;;;4.27;4.07;;;17.40;99.90;;;;;;4999014;28;20479;-80
2023/08/29 18:10:27;;;;;;;4.77;4.47;;;17.40;99.90;;;;;;5002539;28;20451;-82
2023/08/29 18:12:58;;;;;;;5.27;4.97;;;17.40;99.90;;;;;;5014309;28;20455;-79
2023/08/29 18:15:33;;;;;;;5.73;5.20;;;17.30;99.90;;;;;;5014962;28;20472;-80